createdAt,value
2022-12-16T00:01:53.951Z,13.92
2022-12-16T00:05:57.059Z,13.85
2022-12-16T00:09:59.161Z,13.78
2022-12-16T00:14:01.190Z,13.70
2022-12-16T00:18:03.249Z,13.69
2022-12-16T00:22:05.344Z,13.62
2022-12-16T00:26:08.425Z,13.60
2022-12-16T00:30:10.919Z,13.64
2022-12-16T00:34:13.022Z,13.67
2022-12-16T00:38:15.788Z,13.64
2022-12-16T00:42:17.998Z,13.66
2022-12-16T00:46:20.277Z,13.68
2022-12-16T00:50:22.583Z,13.70
2022-12-16T00:54:24.740Z,13.65
2022-12-16T00:58:27.665Z,13.64
2022-12-16T01:02:29.916Z,13.64
2022-12-16T01:06:32.212Z,13.62
2022-12-16T01:10:34.985Z,13.66
2022-12-16T01:14:37.636Z,13.75
2022-12-16T01:18:39.855Z,13.81
2022-12-16T01:22:42.096Z,13.86
2022-12-16T01:26:44.284Z,13.87
2022-12-16T01:30:46.461Z,13.90
2022-12-16T01:34:55.416Z,13.90
2022-12-16T01:38:57.835Z,13.93
2022-12-16T01:42:59.977Z,14.00
2022-12-16T01:47:06.037Z,13.99
2022-12-16T01:51:23.941Z,13.95
2022-12-16T01:55:32.640Z,13.85
2022-12-16T01:59:41.805Z,13.80
2022-12-16T02:03:44.781Z,13.71
2022-12-16T02:08:12.781Z,13.72
2022-12-16T02:12:28.624Z,13.83
2022-12-16T02:16:54.505Z,13.93
2022-12-16T02:21:02.992Z,13.93
2022-12-16T02:25:17.371Z,13.95
2022-12-16T02:29:37.630Z,13.99
2022-12-16T02:34:32.289Z,14.03
2022-12-16T02:38:46.291Z,13.98
2022-12-16T02:42:55.421Z,14.03
2022-12-16T02:46:57.577Z,13.92
2022-12-16T02:51:00.343Z,13.88
2022-12-16T02:55:06.539Z,13.80
2022-12-16T02:59:29.881Z,13.77
2022-12-16T03:03:45.231Z,13.78
2022-12-16T03:07:50.172Z,13.76
2022-12-16T03:11:55.096Z,13.81
2022-12-16T03:16:00.460Z,13.85
2022-12-16T03:20:47.449Z,13.86
2022-12-16T03:24:49.786Z,13.88
2022-12-16T03:29:09.308Z,13.87
2022-12-16T03:33:36.345Z,13.76
2022-12-16T03:37:39.172Z,13.57
2022-12-16T03:41:44.359Z,13.44
2022-12-16T03:52:49.637Z,12.94
2022-12-16T03:56:52.392Z,12.86
2022-12-16T04:00:54.555Z,12.82
2022-12-16T04:04:57.819Z,12.79
2022-12-16T04:09:00.229Z,12.84
2022-12-16T04:13:20.952Z,12.88
2022-12-16T04:17:41.474Z,12.96
2022-12-16T04:22:02.418Z,13.03
2022-12-16T04:26:05.269Z,13.06
2022-12-16T04:30:20.545Z,13.07
2022-12-16T04:34:25.943Z,13.03
2022-12-16T04:38:46.502Z,12.92
2022-12-16T04:43:06.996Z,12.96
2022-12-16T04:47:27.782Z,12.97
2022-12-16T04:51:48.559Z,12.96
2022-12-16T04:56:09.228Z,12.98
2022-12-16T05:00:31.003Z,12.96
2022-12-16T05:04:51.750Z,12.98
2022-12-16T05:09:12.469Z,12.99
2022-12-16T05:13:33.458Z,12.98
2022-12-16T05:17:54.452Z,13.00
2022-12-16T05:22:14.996Z,13.01
2022-12-16T05:26:36.080Z,13.15
2022-12-16T05:30:57.470Z,13.18
2022-12-16T05:35:18.144Z,13.17
2022-12-16T05:39:38.719Z,13.20
2022-12-16T05:43:59.274Z,13.16
2022-12-16T05:48:33.530Z,13.19
2022-12-16T05:52:54.111Z,13.23
2022-12-16T05:57:14.549Z,13.25
2022-12-16T06:01:35.322Z,13.22
2022-12-16T06:05:56.032Z,13.27
2022-12-16T06:10:17.025Z,13.30
2022-12-16T06:19:22.245Z,13.33
2022-12-16T06:23:42.893Z,13.29
2022-12-16T06:28:11.519Z,13.31
2022-12-16T06:32:43.411Z,13.36
2022-12-16T06:37:08.848Z,13.43
2022-12-16T06:41:29.402Z,13.46
2022-12-16T06:45:50.296Z,13.55
2022-12-16T06:50:11.131Z,13.60
2022-12-16T06:54:31.897Z,13.62
2022-12-16T06:58:52.641Z,13.72
2022-12-16T07:03:17.763Z,13.78
2022-12-16T07:07:39.105Z,13.92
2022-12-16T07:12:00.041Z,14.06
2022-12-16T07:16:20.995Z,14.10
2022-12-16T07:20:43.430Z,14.17
2022-12-16T07:25:04.205Z,14.30
2022-12-16T07:29:24.823Z,14.41
2022-12-16T07:33:45.336Z,14.50
2022-12-16T07:38:06.175Z,14.68
2022-12-16T07:42:26.918Z,14.70
2022-12-16T07:46:47.404Z,14.70
2022-12-16T07:51:08.376Z,14.71
2022-12-16T07:55:29.604Z,14.75
2022-12-16T07:59:51.202Z,14.77
2022-12-16T08:04:11.828Z,14.74
2022-12-16T08:08:32.816Z,14.75
2022-12-16T08:12:53.401Z,14.62
2022-12-16T08:17:14.504Z,14.55
2022-12-16T08:21:35.121Z,14.55
2022-12-16T08:25:55.970Z,14.55
2022-12-16T08:30:16.524Z,14.50
2022-12-16T08:34:37.300Z,14.49
2022-12-16T08:38:58.057Z,14.48
2022-12-16T08:43:18.789Z,14.52
2022-12-16T08:47:40.173Z,14.50
2022-12-16T08:52:00.728Z,14.52
2022-12-16T08:56:21.183Z,14.50
2022-12-16T09:00:41.692Z,14.57
2022-12-16T09:05:05.467Z,14.60
2022-12-16T09:09:27.000Z,14.71
2022-12-16T09:13:47.932Z,14.76
2022-12-16T09:18:15.529Z,14.85
2022-12-16T09:22:36.135Z,14.88
2022-12-16T09:26:56.946Z,15.06
2022-12-16T09:31:17.841Z,15.23
2022-12-16T09:35:41.133Z,15.27
2022-12-16T09:40:01.802Z,15.44
2022-12-16T09:44:42.323Z,15.54
2022-12-16T09:49:12.281Z,15.59
2022-12-16T09:53:41.651Z,15.53
2022-12-16T09:58:18.984Z,15.37
2022-12-16T10:02:42.057Z,15.43
2022-12-16T10:07:22.156Z,15.61
2022-12-16T10:12:00.937Z,15.83
2022-12-16T10:16:37.229Z,15.98
2022-12-16T10:21:13.430Z,15.98
2022-12-16T10:25:39.812Z,15.90
2022-12-16T10:30:03.479Z,15.96
2022-12-16T10:34:31.406Z,16.00
2022-12-16T10:39:05.461Z,15.85
2022-12-16T10:43:36.342Z,15.84
2022-12-16T10:48:29.395Z,15.72
2022-12-16T10:53:19.158Z,15.58
2022-12-16T10:57:42.821Z,15.41
2022-12-16T11:02:41.511Z,15.29
2022-12-16T11:07:03.321Z,15.30
2022-12-16T11:11:32.638Z,15.39
2022-12-16T11:15:53.504Z,15.37
2022-12-16T11:20:35.309Z,15.33
2022-12-16T11:24:56.141Z,15.11
2022-12-16T11:29:35.940Z,15.13
2022-12-16T11:34:12.848Z,15.15
2022-12-16T11:39:01.987Z,15.41
2022-12-16T11:43:25.124Z,15.68
2022-12-16T11:47:54.469Z,15.56
2022-12-16T11:52:36.799Z,15.51
2022-12-16T11:57:04.315Z,15.50
2022-12-16T12:01:38.844Z,15.68
2022-12-16T12:06:24.039Z,15.85
2022-12-16T12:11:06.304Z,16.04
2022-12-16T12:15:49.505Z,16.15
2022-12-16T12:20:38.044Z,16.28
2022-12-16T12:25:16.702Z,16.55
2022-12-16T12:30:16.349Z,16.57
2022-12-16T12:34:59.494Z,16.64
2022-12-16T12:39:36.967Z,16.54
2022-12-16T12:44:10.231Z,16.30
2022-12-16T12:48:57.452Z,15.87
2022-12-16T12:53:45.115Z,15.74
2022-12-16T12:58:09.166Z,15.54
2022-12-16T13:02:45.896Z,15.42
2022-12-16T13:07:07.186Z,15.38
2022-12-16T13:11:35.185Z,15.26
2022-12-16T13:15:58.272Z,15.19
2022-12-16T13:20:19.433Z,15.15
2022-12-16T13:24:58.818Z,15.05
2022-12-16T13:29:45.102Z,14.89
2022-12-16T13:34:10.673Z,14.85
2022-12-16T13:38:37.493Z,14.77
2022-12-16T13:43:01.975Z,14.72
2022-12-16T13:47:51.429Z,14.20
2022-12-16T13:52:19.268Z,13.69
2022-12-16T13:56:49.031Z,13.25
2022-12-16T14:01:24.416Z,12.85
2022-12-16T14:05:49.518Z,12.54
2022-12-16T14:10:12.150Z,12.41
2022-12-16T14:14:49.331Z,12.55
2022-12-16T14:19:31.326Z,12.53
2022-12-16T14:24:11.077Z,12.73
2022-12-16T14:28:57.345Z,12.85
2022-12-16T14:33:18.203Z,12.93
2022-12-16T14:37:56.548Z,13.17
2022-12-16T14:42:17.445Z,13.09
2022-12-16T14:46:48.803Z,13.00
2022-12-16T14:51:09.611Z,13.14
2022-12-16T14:55:46.923Z,13.19
2022-12-16T15:00:19.216Z,13.17
2022-12-16T15:04:41.233Z,13.01
2022-12-16T15:09:15.852Z,13.02
2022-12-16T15:13:37.471Z,13.01
2022-12-16T15:18:04.132Z,13.02
2022-12-16T15:22:24.986Z,12.79
2022-12-16T15:26:49.527Z,12.60
2022-12-16T15:31:10.231Z,12.50
2022-12-16T15:36:10.038Z,12.39
2022-12-16T15:40:40.140Z,12.25
2022-12-16T15:45:09.213Z,12.09
2022-12-16T15:49:58.031Z,12.32
2022-12-16T15:54:23.833Z,12.29
2022-12-16T15:58:55.386Z,11.99
2022-12-16T16:03:16.677Z,11.86
2022-12-16T16:07:41.746Z,11.52
2022-12-16T16:12:02.951Z,11.61
2022-12-16T16:16:24.242Z,11.75
2022-12-16T16:20:46.394Z,11.80
2022-12-16T16:25:07.260Z,11.81
2022-12-16T16:29:30.081Z,11.87
2022-12-16T16:33:50.804Z,11.67
2022-12-16T16:38:15.453Z,11.83
2022-12-16T16:42:40.066Z,11.91
2022-12-16T16:47:03.214Z,11.81
2022-12-16T16:56:18.123Z,11.85
2022-12-16T17:00:44.613Z,11.85
2022-12-16T17:05:07.764Z,11.66
2022-12-16T17:09:28.617Z,11.63
2022-12-16T17:13:49.440Z,11.66
2022-12-16T17:18:09.948Z,11.46
2022-12-16T17:22:30.478Z,11.24
2022-12-16T17:26:51.500Z,11.18
2022-12-16T17:31:12.634Z,11.16
2022-12-16T17:35:33.241Z,11.23
2022-12-16T17:39:54.303Z,11.31
2022-12-16T17:44:14.970Z,11.35
2022-12-16T17:48:35.651Z,11.60
2022-12-16T17:52:58.375Z,11.75
2022-12-16T17:57:19.141Z,11.71
2022-12-16T18:01:41.070Z,11.75
2022-12-16T18:06:01.815Z,11.84
2022-12-16T18:10:23.052Z,11.92
2022-12-16T18:14:45.143Z,11.96
2022-12-16T18:19:09.600Z,12.01
2022-12-16T18:23:31.825Z,11.99
2022-12-16T18:27:55.235Z,12.00
2022-12-16T18:32:19.996Z,11.93
2022-12-16T18:36:40.970Z,11.60
2022-12-16T18:41:01.767Z,11.52
2022-12-16T18:45:23.057Z,11.49
2022-12-16T18:49:44.279Z,11.59
2022-12-16T18:54:05.304Z,11.67
2022-12-16T18:58:50.332Z,11.69
2022-12-16T19:03:06.531Z,11.50
2022-12-16T19:07:27.250Z,11.50
2022-12-16T19:11:47.995Z,11.64
2022-12-16T19:16:16.022Z,11.74
2022-12-16T19:20:36.794Z,11.66
2022-12-16T19:24:57.614Z,11.48
2022-12-16T19:29:18.226Z,11.51
2022-12-16T19:33:38.942Z,11.46
2022-12-16T19:37:59.601Z,11.28
2022-12-16T19:42:20.418Z,11.33
2022-12-16T19:46:41.016Z,11.44
2022-12-16T19:51:01.880Z,11.56
2022-12-16T19:55:22.563Z,11.60
2022-12-16T19:59:43.050Z,11.61
2022-12-16T20:04:03.613Z,11.45
2022-12-16T20:08:24.148Z,11.44
2022-12-16T20:12:49.686Z,11.63
2022-12-16T20:17:12.874Z,11.67
2022-12-16T20:21:37.111Z,11.55
2022-12-16T20:25:57.752Z,11.56
2022-12-16T20:30:18.996Z,11.52
2022-12-16T20:34:40.111Z,11.70
2022-12-16T20:39:00.957Z,11.80
2022-12-16T20:43:21.808Z,11.54
2022-12-16T20:47:42.553Z,11.54
2022-12-16T20:52:03.286Z,11.44
2022-12-16T20:56:24.008Z,11.40
2022-12-16T21:00:44.634Z,11.57
2022-12-16T21:05:05.390Z,11.67
2022-12-16T21:09:26.167Z,11.70
2022-12-16T21:13:46.972Z,11.61
2022-12-16T21:18:08.589Z,11.43
2022-12-16T21:22:30.262Z,11.41
2022-12-16T21:26:51.833Z,11.56
2022-12-16T21:31:16.114Z,11.64
2022-12-16T21:35:38.006Z,11.65
2022-12-16T21:39:58.719Z,11.61
2022-12-16T21:44:20.017Z,11.65
2022-12-16T21:48:40.678Z,11.71
2022-12-16T21:53:01.242Z,11.66
2022-12-16T21:57:21.917Z,11.54
2022-12-16T22:01:42.536Z,11.59
2022-12-16T22:06:03.353Z,11.36
2022-12-16T22:10:24.672Z,11.34
2022-12-16T22:14:45.270Z,11.34
2022-12-16T22:19:05.918Z,11.50
2022-12-16T22:23:28.319Z,11.49
2022-12-16T22:27:49.237Z,11.50
2022-12-16T22:32:26.664Z,11.55
2022-12-16T22:36:54.203Z,11.60
2022-12-16T22:41:19.197Z,11.66
2022-12-16T22:45:41.429Z,11.72
2022-12-16T22:50:03.161Z,11.75
2022-12-16T22:54:24.629Z,11.72
2022-12-16T22:58:45.237Z,11.80
2022-12-16T23:03:05.845Z,11.76
2022-12-16T23:07:27.554Z,11.67
2022-12-16T23:11:56.591Z,11.64
2022-12-16T23:16:17.496Z,11.49
2022-12-16T23:20:38.097Z,11.46
2022-12-16T23:24:58.514Z,11.31
2022-12-16T23:29:19.123Z,11.35
2022-12-16T23:33:40.061Z,11.44
2022-12-16T23:38:01.041Z,11.46
2022-12-16T23:42:21.585Z,11.19
2022-12-16T23:46:42.614Z,11.10
2022-12-16T23:51:13.815Z,11.08
2022-12-16T23:55:35.473Z,11.18
2022-12-16T23:59:56.389Z,11.18
